Latest Weather Observations for Port Lincoln Airport

IDS60801

Issued at 5:21 am CST Wednesday 2 September 2026 (issued every 10 minutes, with the page automatically refreshed every 10 minutes)

About weather observations | Map of weather stations | Latest weather observations for SA | Other Formats
Station Details ID: 018192 Name: PORT LINCOLN AWS Lat: -34.60 Lon: 135.88 Height: 8.5 m
Data from the previous 72 hours. | See also: Recent months at Port Lincoln Airport
Date/Time
CST
Temp
°C
App
Temp
°C
Dew
Point
°C
Rel
Hum
%
Delta-T
°C
Wind Press
QNH
hPa
Press
MSL
hPa
Rain since
9am
mm
Dir  Spd
km/h
Gust
km/h
Spd
kts
Gust
kts
02/05:00am 10.1 7.0 7.2 82 1.4 WSW 13 17 7 9 1017.6 1017.6 0.6
02/04:30am 10.0 7.4 7.6 85 1.1 WNW 11 13 6 7 1017.6 1017.6 0.6
02/04:00am 9.8 6.7 7.2 84 1.2 WNW 13 15 7 8 1017.6 1017.6 0.6
02/03:30am 9.0 6.5 6.6 85 1.1 W 9 13 5 7 1017.7 1017.7 0.6
02/03:00am 8.2 4.8 6.0 86 1.0 WNW 13 15 7 8 1017.9 1017.9 0.6
02/02:30am 9.4 5.9 7.0 85 1.1 WNW 15 17 8 9 1018.0 1018.0 0.6
02/02:00am 10.5 7.9 7.9 84 1.3 WSW 11 13 6 7 1018.3 1018.3 0.6
02/01:30am 11.9 9.6 9.1 83 1.4 WSW 11 17 6 9 1018.4 1018.4 0.6
02/01:00am 12.1 10.0 9.7 85 1.2 WSW 11 15 6 8 1018.5 1018.5 0.6
02/12:30am 12.4 10.8 10.3 87 1.1 WSW 9 13 5 7 1018.4 1018.4 0.6
02/12:00am 12.5 10.7 10.7 89 0.9 W 11 13 6 7 1018.3 1018.3 0.6
 
Date/Time
CST
Temp
°C
App
Temp
°C
Dew
Point
°C
Rel
Hum
%
Delta-T
°C
Wind Press
QNH
hPa
Press
MSL
hPa
Rain since
9am
mm
Dir  Spd
km/h
Gust
km/h
Spd
kts
Gust
kts
01/11:30pm 12.5 11.1 10.9 90 0.8 WSW 9 13 5 7 1018.4 1018.4 0.6
01/11:00pm 12.4 11.0 10.8 90 0.8 WSW 9 13 5 7 1018.6 1018.6 0.6
01/10:30pm 13.1 10.3 11.3 89 0.9 WSW 17 22 9 12 1018.6 1018.6 0.6
01/10:00pm 13.2 11.7 11.8 91 0.7 WSW 11 15 6 8 1018.5 1018.5 0.6
01/09:39pm 13.4 12.3 12.0 91 0.8 WSW 9 11 5 6 1018.4 1018.4 0.6
01/09:30pm 13.5 12.0 11.9 90 0.9 SW 11 17 6 9 1018.4 1018.4 0.6
01/09:23pm 13.6 11.7 11.8 89 1.0 SW 13 20 7 11 1018.3 1018.3 0.6
01/09:00pm 14.0 12.8 11.7 86 1.2 SW 9 11 5 6 1018.3 1018.3 0.6
01/08:30pm 14.2 13.1 12.1 87 1.1 SW 9 13 5 7 1018.2 1018.2 0.6
01/08:00pm 14.4 13.3 11.9 85 1.3 SW 9 13 5 7 1017.8 1017.8 0.6
01/07:30pm 14.8 12.6 12.1 84 1.5 SSW 15 19 8 10 1017.4 1017.4 0.6
01/07:24pm 14.9 12.3 12.0 83 1.6 SSW 17 22 9 12 1017.2 1017.2 0.6
01/07:11pm 15.1 12.6 12.2 83 1.6 SSW 17 28 9 15 1017.1 1017.1 0.6
01/07:00pm 15.2 14.0 12.7 85 1.4 SW 11 15 6 8 1017.0 1017.0 0.6
01/06:30pm 15.5 13.8 12.6 83 1.6 SW 13 19 7 10 1016.6 1016.6 0.6
01/06:00pm 15.4 13.0 12.5 83 1.6 WSW 17 22 9 12 1016.1 1016.1 0.6
01/05:30pm 16.6 15.1 14.2 86 1.4 W 15 22 8 12 1015.5 1015.5 0.6
01/05:00pm 17.4 15.0 14.5 83 1.7 W 20 30 11 16 1014.8 1014.8 0.6
01/04:30pm 17.3 14.0 14.0 81 1.9 WNW 24 32 13 17 1014.6 1014.6 0.6
01/04:00pm 18.0 14.0 14.1 78 2.2 WNW 28 37 15 20 1014.1 1014.1 0.6
01/03:30pm 17.1 12.8 13.2 78 2.2 NW 28 39 15 21 1013.8 1013.8 0.6
01/03:00pm 17.1 12.1 12.2 73 2.7 NW 30 39 16 21 1013.7 1013.7 0.6
01/02:30pm 16.8 13.2 12.9 78 2.2 NW 24 35 13 19 1013.7 1013.7 0.6
01/02:00pm 16.2 13.2 12.6 79 2.0 NNW 20 30 11 16 1013.8 1013.8 0.6
01/01:30pm 16.8 12.1 12.1 74 2.6 NW 28 37 15 20 1014.7 1014.7 0.2
01/01:00pm 16.6 12.3 12.0 74 2.5 WNW 26 39 14 21 1015.3 1015.3 0.2
01/12:30pm 19.4 14.0 10.9 58 4.6 WNW 30 39 16 21 1015.4 1015.4 0.0
01/12:00pm 19.3 13.9 10.8 58 4.6 NW 30 39 16 21 1014.9 1014.9 0.0
01/11:30am 18.2 12.6 11.5 65 3.7 NW 32 41 17 22 1015.3 1015.3 0.0
01/11:00am 20.3 14.2 10.4 53 5.4 NW 33 44 18 24 1015.4 1015.4 0.0
01/10:37am 19.8 12.3 9.4 51 5.5 NW 39 52 21 28 1015.4 1015.4 0.0
01/10:30am 19.9 12.0 9.2 50 5.6 NW 41 57 22 31 1015.4 1015.4 0.0
01/10:25am 20.8 13.8 10.0 50 5.8 NW 37 57 20 31 1015.3 1015.3 0.0
01/10:04am 18.7 11.1 9.2 54 5.0 NW 39 54 21 29 1015.6 1015.6 0.0
01/10:00am 18.8 10.8 9.0 53 5.1 NW 41 56 22 30 1015.6 1015.6 0.0
01/09:52am 19.0 11.6 8.4 50 5.5 NW 37 56 20 30 1015.6 1015.6 0.0
01/09:33am 19.6 12.1 8.0 47 6.0 NNW 37 50 20 27 1015.6 1015.6 0.0
01/09:30am 19.8 12.4 8.2 47 6.0 NNW 37 50 20 27 1015.5 1015.5 0.0
01/09:20am 20.5 13.5 8.5 46 6.3 NNW 35 54 19 29 1015.4 1015.4 0.0
01/09:00am 19.7 12.6 8.1 47 6.0 NNW 35 52 19 28 1015.1 1015.1 0.0
01/08:30am 18.7 10.8 7.8 49 5.6 NNW 39 52 21 28 1015.2 1015.2 0.0
01/08:00am 17.9 9.9 7.3 50 5.3 NNW 39 57 21 31 1015.3 1015.3 0.0
01/07:57am 17.7 10.1 7.4 51 5.2 NNW 37 57 20 31 1015.3 1015.3 0.0
01/07:42am 17.4 9.3 7.2 51 5.1 NNW 39 52 21 28 1015.2 1015.2 0.0
01/07:30am 17.2 9.4 6.7 50 5.2 NNW 37 56 20 30 1014.9 1014.9 0.0
01/07:25am 17.3 9.9 6.8 50 5.2 NNW 35 56 19 30 1015.0 1015.0 0.0
01/07:00am 17.4 10.0 6.6 49 5.3 NNW 35 50 19 27 1015.2 1015.2 0.0
01/06:30am 17.5 9.7 6.7 49 5.3 NNW 37 50 20 27 1015.3 1015.3 0.0
01/06:00am 18.1 10.7 6.9 48 5.6 NNW 35 50 19 27 1015.4 1015.4 0.0
01/05:30am 17.4 10.0 6.9 50 5.2 NNW 35 50 19 27 1015.3 1015.3 0.0
01/05:00am 16.9 9.6 7.0 52 4.9 NNW 35 48 19 26 1015.5 1015.5 0.0
01/04:30am 16.6 9.3 7.3 54 4.6 NNW 35 46 19 25 1015.5 1015.5 0.0
01/04:27am 16.5 9.6 7.2 54 4.6 NNW 33 46 18 25 1015.5 1015.5 0.0
01/04:17am 16.3 10.4 7.3 55 4.5 NNW 28 43 15 23 1015.7 1015.7 0.0
01/04:00am 15.9 12.5 7.7 58 4.1 NNW 15 24 8 13 1016.3 1016.3 0.0
01/03:30am 14.3 11.7 7.8 65 3.2 NNE 11 17 6 9 1017.0 1017.0 0.0
01/03:00am 11.4 9.5 6.9 74 2.1 NE 6 7 3 4 1017.8 1017.8 0.0
01/02:30am 11.7 10.9 6.6 71 2.4 CALM 0 0 0 0 1018.5 1018.5 0.0
01/02:00am 12.8 11.0 7.3 69 2.7 N 6 9 3 5 1019.1 1019.1 0.0
01/01:30am 11.4 9.4 7.3 76 2.0 N 7 11 4 6 1019.6 1019.6 0.0
01/01:00am 10.8 8.5 7.3 79 1.7 NNW 9 15 5 8 1020.0 1020.0 0.0
01/12:30am 10.5 8.6 7.4 81 1.5 N 7 9 4 5 1020.2 1020.2 0.0
01/12:00am 9.4 7.4 7.3 87 1.0 W 7 9 4 5 1020.6 1020.6 0.0
 
Date/Time
CST
Temp
°C
App
Temp
°C
Dew
Point
°C
Rel
Hum
%
Delta-T
°C
Wind Press
QNH
hPa
Press
MSL
hPa
Rain since
9am
mm
Dir  Spd
km/h
Gust
km/h
Spd
kts
Gust
kts
31/11:30pm 9.0 7.0 7.0 87 0.9 NW 7 11 4 6 1020.9 1020.9 0.0
31/11:00pm 11.4 9.3 8.1 80 1.6 N 9 24 5 13 1021.4 1021.4 0.0
31/10:30pm 10.9 8.8 8.1 83 1.4 N 9 13 5 7 1022.1 1022.1 0.0
31/10:00pm 10.7 8.4 7.4 80 1.6 N 9 15 5 8 1022.6 1022.6 0.0
31/09:30pm 12.1 9.6 8.4 78 1.8 N 11 13 6 7 1022.7 1022.7 0.0
31/09:00pm 11.8 9.7 8.1 78 1.8 NNW 9 11 5 6 1023.1 1023.1 0.0
31/08:30pm 11.8 10.3 9.2 84 1.3 N 7 11 4 6 1023.1 1023.1 0.0
31/08:00pm 10.9 10.7 9.2 89 0.8 CALM 0 0 0 0 1023.5 1023.5 0.0
31/07:30pm 12.0 12.0 9.7 86 1.2 CALM 0 7 0 4 1023.8 1023.8 0.0
31/07:00pm 12.9 12.7 10.4 85 1.3 N 2 7 1 4 1023.6 1023.6 0.0
31/06:30pm 13.7 12.8 10.5 81 1.7 NNE 6 7 3 4 1023.7 1023.7 0.0
31/06:00pm 14.9 13.6 11.3 79 1.9 NE 9 17 5 9 1023.8 1023.8 0.0
31/05:30pm 16.0 15.1 12.6 80 1.9 E 9 13 5 7 1024.0 1024.0 0.0
31/05:00pm 16.5 14.9 12.7 78 2.1 ENE 13 17 7 9 1024.1 1024.1 0.0
31/04:30pm 17.0 14.6 12.7 76 2.4 ENE 17 20 9 11 1024.2 1024.2 0.0
31/04:00pm 17.1 15.2 13.0 77 2.3 ENE 15 20 8 11 1024.5 1024.5 0.0
31/03:30pm 17.5 16.0 13.2 76 2.4 ENE 13 17 7 9 1024.8 1024.8 0.0
31/03:00pm 17.8 16.0 13.3 75 2.5 NE 15 20 8 11 1025.0 1025.0 0.0
31/02:30pm 18.0 16.4 13.9 77 2.3 ENE 15 20 8 11 1025.2 1025.2 0.0
31/02:00pm 17.8 15.8 13.9 78 2.2 ENE 17 20 9 11 1025.6 1025.6 0.0
31/01:30pm 17.6 14.9 12.9 74 2.6 ENE 19 24 10 13 1026.2 1026.2 0.0
31/01:00pm 18.0 15.5 13.5 75 2.5 ENE 19 22 10 12 1026.8 1026.8 0.0
31/12:30pm 17.4 15.2 13.3 77 2.3 ENE 17 20 9 11 1027.4 1027.4 0.0
31/12:00pm 17.0 14.7 13.1 78 2.2 ENE 17 20 9 11 1028.0 1028.0 0.0
31/11:30am 16.7 14.6 13.6 82 1.7 ENE 17 22 9 12 1028.5 1028.5 0.0
31/11:00am 16.3 14.1 13.2 82 1.7 NE 17 20 9 11 1029.0 1029.0 0.0
31/10:30am 15.6 14.2 13.3 86 1.3 ENE 13 17 7 9 1029.5 1029.5 0.0
31/10:00am 15.2 14.8 12.9 86 1.3 NE 7 11 4 6 1029.9 1029.9 0.0
31/09:30am 14.0 13.1 12.6 91 0.8 NE 9 13 5 7 1030.1 1030.1 0.0
31/09:00am 13.6 14.6 13.1 97 0.3 CALM 0 7 0 4 1030.1 1030.1 0.2
31/08:30am 12.0 12.5 11.5 97 0.3 CALM 0 6 0 3 1030.0 1030.0 0.2
31/08:00am 10.1 10.0 9.5 96 0.3 CALM 0 4 0 2 1030.1 1030.1 0.2
31/07:59am 10.1 10.0 9.5 96 0.3 CALM 0 6 0 3 1030.1 1030.1 0.2
31/07:30am 8.6 6.8 8.0 96 0.3 WNW 7 9 4 5 1029.8 1029.8 0.2
31/07:12am 7.6 6.9 6.9 95 0.3 CALM 0 0 0 0 1029.7 1029.7 0.2
31/07:02am 7.5 5.6 6.8 95 0.3 NW 6 7 3 4 1029.8 1029.8 0.2
31/07:00am 7.5 5.6 6.8 95 0.3 NW 6 7 3 4 1029.8 1029.8 0.2
31/06:50am 7.8 5.8 7.1 95 0.3 NNW 7 7 4 4 1029.8 1029.8 0.2
31/06:43am 8.4 7.1 7.6 95 0.4 N 4 9 2 5 1029.8 1029.8 0.2
31/06:30am 9.8 9.6 9.2 96 0.3 CALM 0 0 0 0 1029.7 1029.7 0.2
31/06:25am 10.0 9.9 9.4 96 0.3 CALM 0 0 0 0 1029.7 1029.7 0.2
31/06:00am 10.9 9.9 10.3 96 0.3 NNE 6 7 3 4 1029.7 1029.7 0.2
31/05:30am 11.1 10.0 10.5 96 0.3 N 7 11 4 6 1029.6 1029.6 0.2
31/05:00am 11.3 9.8 10.7 96 0.3 N 9 13 5 7 1029.7 1029.7 0.2
31/04:51am 11.3 9.8 10.7 96 0.3 N 9 11 5 6 1029.8 1029.8 0.2
31/04:46am 11.4 10.0 10.8 96 0.3 N 9 11 5 6 1029.8 1029.8 0.2
31/04:30am 10.6 9.3 10.0 96 0.3 NNW 7 7 4 4 1029.7 1029.7 0.2
31/04:00am 10.4 9.0 9.6 95 0.4 NNW 7 9 4 5 1029.9 1029.9 0.2
31/03:30am 9.0 8.6 8.1 94 0.4 CALM 0 0 0 0 1030.2 1030.2 0.2
31/03:00am 10.4 9.2 9.6 95 0.4 NW 6 7 3 4 1030.4 1030.4 0.2
31/02:30am 9.7 7.8 8.9 95 0.4 NW 9 11 5 6 1030.7 1030.7 0.2
31/02:00am 8.2 5.9 7.3 94 0.4 NNW 9 13 5 7 1030.9 1030.9 0.2
31/01:39am 7.4 4.5 6.7 95 0.3 NNW 11 13 6 7 1031.2 1031.2 0.2
31/01:30am 6.7 3.7 5.8 94 0.4 NW 11 17 6 9 1031.3 1031.3 0.2
31/01:00am 6.6 3.9 5.7 94 0.4 NW 9 13 5 7 1031.5 1031.5 0.2
31/12:30am 6.6 3.9 5.7 94 0.4 NW 9 13 5 7 1031.4 1031.4 0.2
31/12:00am 7.5 4.2 6.6 94 0.4 NW 13 15 7 8 1031.4 1031.4 0.2
 
Date/Time
CST
Temp
°C
App
Temp
°C
Dew
Point
°C
Rel
Hum
%
Delta-T
°C
Wind Press
QNH
hPa
Press
MSL
hPa
Rain since
9am
mm
Dir  Spd
km/h
Gust
km/h
Spd
kts
Gust
kts
30/11:30pm 7.0 4.0 6.1 94 0.4 WNW 11 13 6 7 1031.6 1031.6 0.2
30/11:00pm 6.8 4.2 5.9 94 0.4 WNW 9 11 5 6 1031.8 1031.8 0.2
30/10:30pm 7.5 5.0 6.6 94 0.4 WNW 9 11 5 6 1032.2 1032.2 0.2
30/10:00pm 6.9 4.3 6.0 94 0.4 WNW 9 11 5 6 1032.4 1032.4 0.2
30/09:30pm 7.2 5.2 6.1 93 0.5 WNW 6 7 3 4 1032.4 1032.4 0.2
30/09:00pm 7.6 5.7 6.5 93 0.5 WNW 6 7 3 4 1032.4 1032.4 0.2
30/08:30pm 7.9 7.2 6.8 93 0.5 CALM 0 0 0 0 1032.1 1032.1 0.2
30/08:00pm 8.5 7.9 7.3 92 0.6 CALM 0 0 0 0 1032.2 1032.2 0.2
30/07:30pm 8.5 7.8 7.1 91 0.6 CALM 0 0 0 0 1032.1 1032.1 0.2
30/07:00pm 9.5 8.9 7.4 87 1.0 CALM 0 0 0 0 1031.9 1031.9 0.2
30/06:30pm 12.4 11.3 10.1 86 1.2 ESE 6 7 3 4 1031.6 1031.6 0.2
30/06:00pm 13.5 12.6 10.5 82 1.6 E 6 9 3 5 1031.5 1031.5 0.2
30/05:30pm 14.6 13.1 10.4 76 2.2 ESE 9 13 5 7 1031.5 1031.5 0.2
30/05:00pm 15.3 13.0 10.3 72 2.6 E 13 15 7 8 1031.5 1031.5 0.2
30/04:30pm 15.8 13.4 10.1 69 3.0 E 13 15 7 8 1031.5 1031.5 0.2
30/04:00pm 16.5 14.0 11.0 70 2.9 E 15 17 8 9 1031.7 1031.7 0.2
30/03:30pm 16.6 14.6 10.0 65 3.4 E 11 15 6 8 1031.9 1031.9 0.2
30/03:00pm 16.9 15.3 10.3 65 3.5 ESE 9 15 5 8 1032.3 1032.3 0.2
30/02:30pm 16.8 15.0 9.5 62 3.8 ESE 9 11 5 6 1032.4 1032.4 0.2
30/02:00pm 16.3 15.1 11.5 73 2.6 E 9 13 5 7 1032.6 1032.6 0.2
30/01:30pm 16.0 14.5 12.0 77 2.2 E 11 17 6 9 1033.0 1033.0 0.2
30/01:00pm 15.7 14.1 11.7 77 2.2 ENE 11 17 6 9 1033.4 1033.4 0.2
30/12:30pm 15.9 14.2 12.5 80 1.9 ENE 13 17 7 9 1034.0 1034.0 0.2
30/12:00pm 15.5 13.7 12.1 80 1.8 E 13 20 7 11 1034.3 1034.3 0.2
30/11:30am 15.6 13.8 12.2 80 1.8 E 13 19 7 10 1034.7 1034.7 0.2
30/11:20am 15.4 13.1 11.8 79 1.9 ENE 15 22 8 12 1034.6 1034.6 0.2
30/11:00am 15.6 13.8 12.2 80 1.9 ENE 13 17 7 9 1034.8 1034.8 0.2
30/10:30am 14.8 12.8 11.6 81 1.7 ENE 13 19 7 10 1035.0 1035.0 0.2
30/10:00am 15.0 13.2 12.1 83 1.6 ENE 13 19 7 10 1035.1 1035.1 0.2
30/09:52am 15.1 12.9 12.1 82 1.6 ENE 15 19 8 10 1035.1 1035.1 0.2
30/09:46am 15.0 12.9 12.5 85 1.4 ENE 15 19 8 10 1035.1 1035.1 0.2
30/09:30am 14.8 12.3 12.3 85 1.3 E 17 20 9 11 1035.2 1035.2 0.0
30/09:13am 14.8 11.9 12.3 85 1.4 E 19 22 10 12 1035.2 1035.2 0.0
30/09:00am 14.6 11.6 12.1 85 1.3 E 19 24 10 13 1035.2 1035.2 0.0
30/08:30am 13.9 11.1 12.5 91 0.8 E 19 24 10 13 1034.9 1034.9 0.0
30/08:00am 11.8 11.8 11.3 97 0.3 E 2 11 1 6 1034.5 1034.5 0.0
30/07:30am 8.6 7.0 8.0 96 0.3 WNW 6 7 3 4 1034.2 1034.2 0.0
30/07:00am 7.5 6.0 6.9 96 0.3 WNW 4 9 2 5 1034.1 1034.1 0.0
30/06:30am 7.3 5.2 6.6 95 0.3 WNW 7 9 4 5 1033.7 1033.7 0.0
30/06:00am 7.7 5.7 7.0 95 0.3 WNW 7 9 4 5 1033.6 1033.6 0.0
30/05:30am 7.7 5.3 7.0 95 0.3 WNW 9 11 5 6 1033.6 1033.6 0.0

Other formats

Comma delimited format used in spreadsheet applications
http://www.bom.gov.au/fwo/IDS60801/IDS60801.95661.axf

JavaScript Object Notation format (JSON) in row-major order
http://www.bom.gov.au/fwo/IDS60801/IDS60801.95661.json

Data quality

Most of these data are generated automatically and are frequently updated. Quality checks on data are not normally performed. It is possible for incorrect values to appear. Refer to information at About Latest Weather Observations and please check the disclaimer before using these data.